createdAt,value
2016-12-09T00:01:35.170Z,48.2
2016-12-09T00:04:07.012Z,48.1
2016-12-09T00:06:38.854Z,48.1
2016-12-09T00:09:10.699Z,48.1
2016-12-09T00:11:42.547Z,48.1
2016-12-09T00:14:14.397Z,48.1
2016-12-09T00:16:46.240Z,48.2
2016-12-09T00:19:18.116Z,48.2
2016-12-09T00:21:49.952Z,48.2
2016-12-09T00:24:21.787Z,48.1
2016-12-09T00:26:53.638Z,48.1
2016-12-09T00:29:25.502Z,48.1
2016-12-09T00:31:57.363Z,48.2
2016-12-09T00:34:29.217Z,48.1
2016-12-09T00:37:01.067Z,48.1
2016-12-09T00:39:32.917Z,48.1
2016-12-09T00:42:04.773Z,48.1
2016-12-09T00:44:36.617Z,48.1
2016-12-09T00:47:08.456Z,48.1
2016-12-09T00:49:40.312Z,48.1
2016-12-09T00:52:12.147Z,48.1
2016-12-09T00:54:43.996Z,48.1
2016-12-09T00:57:15.852Z,48.2
2016-12-09T00:59:47.700Z,48.2
2016-12-09T01:02:19.551Z,48.2
2016-12-09T01:04:51.399Z,48.1
2016-12-09T01:07:23.227Z,48.2
2016-12-09T01:09:55.077Z,48.1
2016-12-09T01:12:26.921Z,48.1
2016-12-09T01:14:58.767Z,48.2
2016-12-09T01:17:30.637Z,48.2
2016-12-09T01:20:02.474Z,48.2
2016-12-09T01:22:34.319Z,48.2
2016-12-09T01:25:06.179Z,48.2
2016-12-09T01:27:38.013Z,48.2
2016-12-09T01:30:09.874Z,48.2
2016-12-09T01:32:41.724Z,48.1
2016-12-09T01:35:13.553Z,48.2
2016-12-09T01:37:45.420Z,48.1
2016-12-09T01:40:17.265Z,48.1
2016-12-09T01:42:49.103Z,48.1
2016-12-09T01:45:20.969Z,48.2
2016-12-09T01:47:52.805Z,48.2
2016-12-09T01:50:24.649Z,48.1
2016-12-09T01:52:56.497Z,48.2
2016-12-09T01:55:28.338Z,48.2
2016-12-09T01:58:00.181Z,48.2
2016-12-09T02:00:32.026Z,48.1
2016-12-09T02:03:03.864Z,48.1
2016-12-09T02:05:35.711Z,48.1
2016-12-09T02:08:07.568Z,48
2016-12-09T02:10:39.406Z,48.1
2016-12-09T02:13:11.238Z,48.1
2016-12-09T02:15:43.081Z,48.1
2016-12-09T02:18:14.922Z,48
2016-12-09T02:20:46.779Z,48
2016-12-09T02:23:18.978Z,48.1
2016-12-09T02:25:50.821Z,48
2016-12-09T02:28:22.663Z,48.1
2016-12-09T02:30:54.517Z,48
2016-12-09T02:33:26.351Z,48.1
2016-12-09T02:35:58.197Z,48.1
2016-12-09T02:38:30.049Z,48.1
2016-12-09T02:41:01.895Z,48.2
2016-12-09T02:43:33.783Z,48.1
2016-12-09T02:46:05.637Z,48.1
2016-12-09T02:48:37.479Z,48.1
2016-12-09T02:51:09.329Z,48.1
2016-12-09T02:53:41.171Z,48.1
2016-12-09T02:56:13.012Z,48.1
2016-12-09T02:58:44.865Z,48.1
2016-12-09T03:01:16.705Z,48.1
2016-12-09T03:03:48.565Z,48.1
2016-12-09T03:06:20.417Z,48.1
2016-12-09T03:08:52.258Z,48.1
2016-12-09T03:11:24.094Z,48.1
2016-12-09T03:13:55.956Z,48.1
2016-12-09T03:16:27.809Z,48.1
2016-12-09T03:18:59.652Z,48.1
2016-12-09T03:21:31.507Z,48.1
2016-12-09T03:24:03.352Z,48.2
2016-12-09T03:26:35.186Z,48.1
2016-12-09T03:29:07.032Z,48
2016-12-09T03:31:38.869Z,48.1
2016-12-09T03:34:10.729Z,48.1
2016-12-09T03:36:42.579Z,48
2016-12-09T03:39:14.418Z,48
2016-12-09T03:41:46.272Z,48.1
2016-12-09T03:44:18.107Z,48.1
2016-12-09T03:46:49.945Z,48.1
2016-12-09T03:49:21.795Z,48.1
2016-12-09T03:51:53.628Z,48.1
2016-12-09T03:54:25.465Z,48.1
2016-12-09T03:56:57.311Z,48.1
2016-12-09T03:59:29.156Z,48
2016-12-09T04:02:01.017Z,48.1
2016-12-09T04:04:32.862Z,48.1
2016-12-09T04:07:04.708Z,48
2016-12-09T04:09:36.566Z,48.1
2016-12-09T04:12:08.402Z,48.2
2016-12-09T04:14:40.244Z,48.1
2016-12-09T04:17:12.098Z,48.1
2016-12-09T04:19:43.927Z,48.1
2016-12-09T04:22:15.792Z,48.1
2016-12-09T04:24:47.655Z,48.1
2016-12-09T04:27:19.491Z,48
2016-12-09T04:29:51.352Z,47.9
2016-12-09T04:32:23.204Z,47.8
2016-12-09T04:34:55.057Z,47.7
2016-12-09T04:37:27.222Z,47.6
2016-12-09T04:39:59.058Z,47.6
2016-12-09T04:42:30.928Z,47.7
2016-12-09T04:45:02.779Z,47.7
2016-12-09T04:47:34.633Z,47.6
2016-12-09T04:50:06.475Z,47.7
2016-12-09T04:52:38.332Z,47.6
2016-12-09T04:55:10.186Z,47.6
2016-12-09T04:57:42.040Z,47.7
2016-12-09T05:00:13.889Z,47.8
2016-12-09T05:02:45.728Z,47.7
2016-12-09T05:05:17.566Z,47.8
2016-12-09T05:07:49.407Z,47.8
2016-12-09T05:10:21.245Z,47.9
2016-12-09T05:12:53.088Z,47.9
2016-12-09T05:15:24.946Z,48
2016-12-09T05:17:57.199Z,48.1
2016-12-09T05:20:29.039Z,48.1
2016-12-09T05:23:00.887Z,48.1
2016-12-09T05:25:32.727Z,48.2
2016-12-09T05:28:04.570Z,48.1
2016-12-09T05:30:36.459Z,48.2
2016-12-09T05:33:08.322Z,48.3
2016-12-09T05:35:40.183Z,48.3
2016-12-09T05:38:12.061Z,48.3
2016-12-09T05:40:43.913Z,48.3
2016-12-09T05:43:15.776Z,48.3
2016-12-09T05:45:47.632Z,48.3
2016-12-09T05:48:19.531Z,48.3
2016-12-09T05:50:51.384Z,48
2016-12-09T05:53:23.238Z,47.8
2016-12-09T05:55:55.079Z,47.9
2016-12-09T05:58:26.921Z,48
2016-12-09T06:00:58.783Z,48.2
2016-12-09T06:03:30.638Z,47.8
2016-12-09T06:06:02.490Z,48.1
2016-12-09T06:08:34.340Z,48.2
2016-12-09T06:11:06.202Z,48.3
2016-12-09T06:13:38.053Z,48.2
2016-12-09T06:16:09.907Z,48.4
2016-12-09T06:18:41.840Z,48.6
2016-12-09T06:21:13.689Z,48.8
2016-12-09T06:23:45.538Z,48.8
2016-12-09T06:26:17.391Z,48.9
2016-12-09T06:28:49.242Z,49
2016-12-09T06:31:21.080Z,49.1
2016-12-09T06:33:52.938Z,49.1
2016-12-09T06:36:24.790Z,49.2
2016-12-09T06:38:56.625Z,49.2
2016-12-09T06:41:28.481Z,49.2
2016-12-09T06:44:00.312Z,49.2
2016-12-09T06:46:32.152Z,49.1
2016-12-09T06:49:04.037Z,48.9
2016-12-09T06:51:35.866Z,48.8
2016-12-09T06:54:07.718Z,48.7
2016-12-09T06:56:39.561Z,48.5
2016-12-09T06:59:11.398Z,48.3
2016-12-09T07:01:43.260Z,48.1
2016-12-09T07:04:15.106Z,48
2016-12-09T07:06:46.944Z,47.9
2016-12-09T07:09:18.799Z,47.8
2016-12-09T07:11:50.988Z,47.8
2016-12-09T07:14:22.834Z,47.8
2016-12-09T07:16:54.673Z,47.7
2016-12-09T07:19:26.525Z,47.8
2016-12-09T07:21:58.403Z,47.8
2016-12-09T07:24:30.260Z,47.8
2016-12-09T07:27:02.121Z,47.8
2016-12-09T07:29:33.967Z,47.9
2016-12-09T07:32:05.818Z,47.9
2016-12-09T07:34:37.657Z,48
2016-12-09T07:37:09.522Z,48
2016-12-09T07:39:41.365Z,48.1
2016-12-09T07:42:13.207Z,48.4
2016-12-09T07:44:45.044Z,49
2016-12-09T07:47:16.912Z,50.1
2016-12-09T07:49:48.805Z,50.3
2016-12-09T07:52:20.681Z,50.5
2016-12-09T07:54:52.547Z,50.8
2016-12-09T07:57:24.381Z,49.5
2016-12-09T07:59:56.228Z,50.1
2016-12-09T08:02:28.079Z,50.6
2016-12-09T08:04:59.927Z,51.1
2016-12-09T08:07:31.891Z,51.4
2016-12-09T08:10:03.743Z,51.5
2016-12-09T08:12:35.620Z,51.6
2016-12-09T08:15:07.457Z,51.6
2016-12-09T08:17:39.460Z,51.8
2016-12-09T08:20:11.638Z,51.8
2016-12-09T08:22:43.616Z,52
2016-12-09T08:25:16.611Z,52
2016-12-09T08:27:48.868Z,52.2
2016-12-09T08:30:20.922Z,52.3
2016-12-09T08:32:53.071Z,52.4
2016-12-09T08:35:26.222Z,52.5
2016-12-09T08:37:58.526Z,52.4
2016-12-09T08:40:30.802Z,52.2
2016-12-09T08:43:02.805Z,52.6
2016-12-09T08:45:35.085Z,52.7
2016-12-09T08:48:07.078Z,52.8
2016-12-09T08:50:38.907Z,52.8
2016-12-09T08:53:10.772Z,51.4
2016-12-09T08:55:42.611Z,50.9
2016-12-09T08:58:14.503Z,50.7
2016-12-09T09:00:46.364Z,50.7
2016-12-09T09:03:18.250Z,50.5
2016-12-09T09:05:50.092Z,50.3
2016-12-09T09:08:21.989Z,50.2
2016-12-09T09:10:53.830Z,50.1
2016-12-09T09:13:25.703Z,50
2016-12-09T09:15:57.533Z,49.9
2016-12-09T09:18:29.381Z,49.7
2016-12-09T09:21:01.394Z,49.5
2016-12-09T09:23:33.231Z,49.5
2016-12-09T09:26:05.092Z,49.3
2016-12-09T09:28:37.036Z,49.3
2016-12-09T09:31:08.904Z,49.3
2016-12-09T09:33:40.747Z,49.2
2016-12-09T09:36:12.652Z,49.1
2016-12-09T09:38:44.492Z,49.2
2016-12-09T09:41:16.365Z,49
2016-12-09T09:43:48.339Z,49.1
2016-12-09T09:46:20.209Z,49
2016-12-09T09:48:52.085Z,49
2016-12-09T09:51:23.928Z,49
2016-12-09T09:53:55.776Z,48.9
2016-12-09T09:56:27.962Z,48.9
2016-12-09T09:58:59.816Z,48.9
2016-12-09T10:01:31.667Z,48.9
2016-12-09T10:04:03.515Z,48.8
2016-12-09T10:06:35.847Z,49
2016-12-09T10:09:07.676Z,48.9
2016-12-09T10:11:39.539Z,48.9
2016-12-09T10:14:11.414Z,49
2016-12-09T10:16:43.272Z,49
2016-12-09T10:19:15.128Z,49
2016-12-09T10:21:46.979Z,49
2016-12-09T10:24:18.828Z,49
2016-12-09T10:26:50.680Z,48.9
2016-12-09T10:29:22.532Z,49
2016-12-09T10:31:54.377Z,49.1
2016-12-09T10:34:26.230Z,49
2016-12-09T10:36:58.085Z,49
2016-12-09T10:39:29.926Z,49.1
2016-12-09T10:42:01.786Z,49.1
2016-12-09T10:44:33.680Z,49.1
2016-12-09T10:47:05.545Z,49.1
2016-12-09T10:49:37.404Z,49
2016-12-09T10:52:09.272Z,49
2016-12-09T10:54:41.122Z,49
2016-12-09T10:57:12.977Z,49.1
2016-12-09T10:59:44.809Z,49.1
2016-12-09T11:02:16.649Z,49.1
2016-12-09T11:04:48.500Z,49.1
2016-12-09T11:07:20.356Z,49.1
2016-12-09T11:09:52.220Z,49.1
2016-12-09T11:12:24.088Z,49.1
2016-12-09T11:14:56.322Z,49.1
2016-12-09T11:17:28.166Z,49.1
2016-12-09T11:20:00.021Z,49.1
2016-12-09T11:22:32.268Z,49.2
2016-12-09T11:25:04.119Z,49.2
2016-12-09T11:27:35.968Z,49.1
2016-12-09T11:30:07.819Z,48.9
2016-12-09T11:32:39.725Z,49.1
2016-12-09T11:35:11.586Z,49.2
2016-12-09T11:37:43.732Z,49.3
2016-12-09T11:40:15.599Z,49.2
2016-12-09T11:42:47.551Z,49.1
2016-12-09T11:45:19.396Z,49.1
2016-12-09T11:47:51.244Z,49.2
2016-12-09T11:50:23.086Z,49.1
2016-12-09T11:52:54.921Z,49.2
2016-12-09T11:55:26.768Z,49.2
2016-12-09T11:57:58.612Z,49.3
2016-12-09T12:00:30.449Z,49.2
2016-12-09T12:03:02.310Z,49.2
2016-12-09T12:05:34.164Z,49.2
2016-12-09T12:08:06.011Z,49.2
2016-12-09T12:10:37.857Z,49.1
2016-12-09T12:13:09.694Z,49.1
2016-12-09T12:15:41.586Z,49.1
2016-12-09T12:18:13.446Z,49.2
2016-12-09T12:20:45.287Z,49.2
2016-12-09T12:23:17.136Z,49.1
2016-12-09T12:25:48.979Z,49.1
2016-12-09T12:28:21.655Z,49.1
2016-12-09T12:30:53.871Z,49.1
2016-12-09T12:33:25.721Z,49.1
2016-12-09T12:35:57.605Z,49.1
2016-12-09T12:38:29.473Z,49
2016-12-09T12:41:01.328Z,49.1
2016-12-09T12:43:33.215Z,49.1
2016-12-09T12:46:05.075Z,49.2
2016-12-09T12:48:36.914Z,49.1
2016-12-09T12:51:08.758Z,49.2
2016-12-09T12:53:40.614Z,49.3
2016-12-09T12:56:12.448Z,49.3
2016-12-09T12:58:44.321Z,49.2
2016-12-09T13:01:16.181Z,49.3
2016-12-09T13:03:48.020Z,49.3
2016-12-09T13:06:19.886Z,49.3
2016-12-09T13:08:51.809Z,49.4
2016-12-09T13:11:23.650Z,48.7
2016-12-09T13:13:56.099Z,49.1
2016-12-09T13:16:27.960Z,48.8
2016-12-09T13:18:59.805Z,48.3
2016-12-09T13:21:31.659Z,48.7
2016-12-09T13:24:03.528Z,49.6
2016-12-09T13:26:35.397Z,49.2
2016-12-09T13:29:07.504Z,49.1
2016-12-09T13:31:39.347Z,49.3
2016-12-09T13:34:11.198Z,49.8
2016-12-09T13:36:43.049Z,50.1
2016-12-09T13:39:14.898Z,50.2
2016-12-09T13:41:46.760Z,49.9
2016-12-09T13:44:18.893Z,50.1
2016-12-09T13:46:50.730Z,50.1
2016-12-09T13:49:22.579Z,50.3
2016-12-09T13:51:54.410Z,50.2
2016-12-09T13:54:26.259Z,50.3
2016-12-09T13:56:58.143Z,50.4
2016-12-09T13:59:29.992Z,50.4
2016-12-09T14:02:01.844Z,50.4
2016-12-09T14:04:33.769Z,50.4
2016-12-09T14:07:05.666Z,50.4
2016-12-09T14:09:37.504Z,50.4
2016-12-09T14:12:09.390Z,50.4
2016-12-09T14:14:41.250Z,50.4
2016-12-09T14:17:13.099Z,50.5
2016-12-09T14:19:44.951Z,50.5
2016-12-09T14:22:16.795Z,50.4
2016-12-09T14:24:48.643Z,50.4
2016-12-09T14:27:20.509Z,50.4
2016-12-09T14:29:52.350Z,50.4
2016-12-09T14:32:24.206Z,50.4
2016-12-09T14:34:56.053Z,50.4
2016-12-09T14:37:27.922Z,50.4
2016-12-09T14:39:59.768Z,50.5
2016-12-09T14:42:31.625Z,50.4
2016-12-09T14:45:03.538Z,50.3
2016-12-09T14:47:35.392Z,50.3
2016-12-09T14:50:07.250Z,50.4
2016-12-09T14:52:39.322Z,50.4
2016-12-09T14:55:11.165Z,50.4
2016-12-09T14:57:43.032Z,50.4
2016-12-09T15:00:14.883Z,50.4
2016-12-09T15:02:46.738Z,50.4
2016-12-09T15:05:18.583Z,50.5
2016-12-09T15:07:50.450Z,50.4
2016-12-09T15:10:22.628Z,50.4
2016-12-09T15:12:54.466Z,50.3
2016-12-09T15:15:26.324Z,50.4
2016-12-09T15:17:58.187Z,50.3
2016-12-09T15:20:30.031Z,50.3
2016-12-09T15:23:01.871Z,50.3
2016-12-09T15:25:33.899Z,49.8
2016-12-09T15:28:05.738Z,49.6
2016-12-09T15:30:37.750Z,49.4
2016-12-09T15:33:09.604Z,49.2
2016-12-09T15:35:41.702Z,49.1
2016-12-09T15:38:13.572Z,49.4
2016-12-09T15:40:45.646Z,49.4
2016-12-09T15:43:17.490Z,49.7
2016-12-09T15:45:49.643Z,50.3
2016-12-09T15:48:21.480Z,50.4
2016-12-09T15:50:53.741Z,50.5
2016-12-09T15:53:25.603Z,50.6
2016-12-09T15:55:57.688Z,50.8
2016-12-09T15:58:29.533Z,50.9
2016-12-09T16:01:01.721Z,50.9
2016-12-09T16:03:33.572Z,51
2016-12-09T16:06:05.718Z,51
2016-12-09T16:08:37.686Z,51.2
2016-12-09T16:11:24.553Z,51.2
2016-12-09T16:13:56.912Z,51.2
2016-12-09T16:16:29.438Z,51.2
2016-12-09T16:19:01.277Z,51.2
2016-12-09T16:21:33.645Z,51.2
2016-12-09T16:24:05.479Z,51.2
2016-12-09T16:26:37.876Z,51.1
2016-12-09T16:29:09.730Z,51
2016-12-09T16:31:41.689Z,50.9
2016-12-09T16:34:13.540Z,50.8
2016-12-09T16:36:45.710Z,50.5
2016-12-09T16:39:17.552Z,50.5
2016-12-09T16:41:49.413Z,50.3
2016-12-09T16:44:21.525Z,50.2
2016-12-09T16:46:53.620Z,50.4
2016-12-09T16:49:25.472Z,50.6
2016-12-09T16:51:57.332Z,51.4
2016-12-09T16:54:29.167Z,53.2
2016-12-09T16:57:01.022Z,53
2016-12-09T16:59:32.873Z,53.4
2016-12-09T17:02:04.712Z,53.3
2016-12-09T17:04:36.566Z,53.4
2016-12-09T17:07:08.414Z,53
2016-12-09T17:09:40.271Z,53.1
2016-12-09T17:12:12.114Z,53.7
2016-12-09T17:14:43.965Z,54.2
2016-12-09T17:17:15.836Z,54.5
2016-12-09T17:19:47.690Z,54.6
2016-12-09T17:22:19.530Z,54.6
2016-12-09T17:24:51.368Z,54.6
2016-12-09T17:27:23.222Z,54.7
2016-12-09T17:29:55.068Z,54.6
2016-12-09T17:32:26.933Z,54.7
2016-12-09T17:34:58.801Z,54.7
2016-12-09T17:37:30.648Z,54.7
2016-12-09T17:40:02.492Z,54.7
2016-12-09T17:42:34.330Z,54.7
2016-12-09T17:45:06.193Z,54.6
2016-12-09T17:47:38.040Z,54.6
2016-12-09T17:50:09.895Z,54.6
2016-12-09T17:52:41.753Z,54.6
2016-12-09T17:55:13.596Z,54.5
2016-12-09T17:57:45.448Z,54.4
2016-12-09T18:00:17.309Z,54.5
2016-12-09T18:02:49.156Z,54.4
2016-12-09T18:05:21.020Z,54.3
2016-12-09T18:07:52.865Z,54.3
2016-12-09T18:10:24.721Z,54.3
2016-12-09T18:12:56.568Z,54.2
2016-12-09T18:15:28.404Z,53.7
2016-12-09T18:18:00.291Z,53
2016-12-09T18:20:32.147Z,53
2016-12-09T18:23:03.998Z,52.9
2016-12-09T18:25:35.859Z,53
2016-12-09T18:28:07.711Z,53
2016-12-09T18:30:39.572Z,53.1
2016-12-09T18:33:11.426Z,53.1
2016-12-09T18:35:43.270Z,53.3
2016-12-09T18:38:15.142Z,53.7
2016-12-09T18:40:47.004Z,53.9
2016-12-09T18:43:18.849Z,54
2016-12-09T18:45:50.719Z,54
2016-12-09T18:48:22.584Z,54.2
2016-12-09T18:50:54.424Z,54.2
2016-12-09T18:53:26.285Z,54.4
2016-12-09T18:55:58.119Z,54.4
2016-12-09T18:58:29.941Z,54.4
2016-12-09T19:01:01.825Z,54.5
2016-12-09T19:03:33.658Z,54.6
2016-12-09T19:06:05.843Z,54.5
2016-12-09T19:08:37.701Z,54.5
2016-12-09T19:11:09.543Z,54.6
2016-12-09T19:13:41.412Z,54.5
2016-12-09T19:16:13.274Z,54.4
2016-12-09T19:18:45.118Z,54.2
2016-12-09T19:21:16.991Z,54.2
2016-12-09T19:23:48.840Z,54.2
2016-12-09T19:26:20.676Z,54.2
2016-12-09T19:28:52.534Z,54.2
2016-12-09T19:31:24.394Z,54.2
2016-12-09T19:33:56.239Z,54.2
2016-12-09T19:36:28.101Z,54.2
2016-12-09T19:38:59.956Z,54.2
2016-12-09T19:41:31.804Z,53.9
2016-12-09T19:44:03.653Z,53.7
2016-12-09T19:46:35.495Z,53.6
2016-12-09T19:49:07.352Z,54
2016-12-09T19:51:39.201Z,54.2
2016-12-09T19:54:11.046Z,54.4
2016-12-09T19:56:42.919Z,54.6
2016-12-09T19:59:14.778Z,54.6
2016-12-09T20:01:46.607Z,54.7
2016-12-09T20:04:18.455Z,54.8
2016-12-09T20:06:50.313Z,54.8
2016-12-09T20:09:22.146Z,54.7
2016-12-09T20:11:54.004Z,54.8
2016-12-09T20:14:25.850Z,54.8
2016-12-09T20:16:57.697Z,54.8
2016-12-09T20:19:29.551Z,54.8
2016-12-09T20:22:01.622Z,54.8
2016-12-09T20:24:33.466Z,54.8
2016-12-09T20:27:05.317Z,54.8
2016-12-09T20:29:37.167Z,54.8
2016-12-09T20:32:09.032Z,54.8
2016-12-09T20:34:40.887Z,54.8
2016-12-09T20:37:12.736Z,54.8
2016-12-09T20:39:44.594Z,54.8
2016-12-09T20:42:16.465Z,54.8
2016-12-09T20:44:48.323Z,54.8
2016-12-09T20:47:20.163Z,54.7
2016-12-09T20:49:52.021Z,54.7
2016-12-09T20:52:23.871Z,54.7
2016-12-09T20:54:55.722Z,54.7
2016-12-09T20:57:27.588Z,54.7
2016-12-09T20:59:59.429Z,54.7
2016-12-09T21:02:31.265Z,54.7
2016-12-09T21:05:03.112Z,54.6
2016-12-09T21:07:34.961Z,54.6
2016-12-09T21:10:06.802Z,54.6
2016-12-09T21:12:38.639Z,54.5
2016-12-09T21:15:10.480Z,54.6
2016-12-09T21:17:42.328Z,54.6
2016-12-09T21:20:14.162Z,54.6
2016-12-09T21:22:46.011Z,54.6
2016-12-09T21:25:17.868Z,54.6
2016-12-09T21:27:49.714Z,54.5
2016-12-09T21:30:21.563Z,54.6
2016-12-09T21:32:53.399Z,54.6
2016-12-09T21:35:25.234Z,54.6
2016-12-09T21:37:57.083Z,54.5
2016-12-09T21:40:28.925Z,54.6
2016-12-09T21:43:00.766Z,54.6
2016-12-09T21:45:32.612Z,54.6
2016-12-09T21:48:04.472Z,54.6
2016-12-09T21:50:36.315Z,54.6
2016-12-09T21:53:08.161Z,54.5
2016-12-09T21:55:39.993Z,54.5
2016-12-09T21:58:11.826Z,54.5
2016-12-09T22:00:43.671Z,54.5
2016-12-09T22:03:15.523Z,54.6
2016-12-09T22:05:47.368Z,54.6
2016-12-09T22:08:19.194Z,54.5
2016-12-09T22:10:51.042Z,54.5
2016-12-09T22:13:22.889Z,54.5
2016-12-09T22:15:54.755Z,54.5
2016-12-09T22:18:26.602Z,54.5
2016-12-09T22:20:58.438Z,54.5
2016-12-09T22:23:30.294Z,54.5
2016-12-09T22:26:02.129Z,54.5
2016-12-09T22:28:33.967Z,54.5
2016-12-09T22:31:05.820Z,54.5
2016-12-09T22:33:37.656Z,54.5
2016-12-09T22:36:09.511Z,54.5
2016-12-09T22:38:41.374Z,54.5
2016-12-09T22:41:13.212Z,54.5
2016-12-09T22:43:45.048Z,54.5
2016-12-09T22:46:16.885Z,54.5
2016-12-09T22:48:48.750Z,54.5
2016-12-09T22:51:20.617Z,54.6
2016-12-09T22:53:52.449Z,54.5
2016-12-09T22:56:24.290Z,54.5
2016-12-09T22:58:56.138Z,54.5
2016-12-09T23:01:27.979Z,54.5
2016-12-09T23:03:59.822Z,54.5
2016-12-09T23:06:31.650Z,54.5
2016-12-09T23:09:03.500Z,54.5
2016-12-09T23:11:35.354Z,54.5
2016-12-09T23:14:07.183Z,54.5
2016-12-09T23:16:39.053Z,54.4
2016-12-09T23:19:10.884Z,54.4
2016-12-09T23:21:42.718Z,54.4
2016-12-09T23:24:14.579Z,54.4
2016-12-09T23:26:46.431Z,54.4
2016-12-09T23:29:18.282Z,54.4
2016-12-09T23:31:50.152Z,54.4
2016-12-09T23:34:22.021Z,54.4
2016-12-09T23:36:53.881Z,54.4
2016-12-09T23:39:25.731Z,54.3
2016-12-09T23:41:57.562Z,54.3
2016-12-09T23:44:29.415Z,54.4
2016-12-09T23:47:01.265Z,54.3
2016-12-09T23:49:33.096Z,54.3
2016-12-09T23:52:04.932Z,54.3
2016-12-09T23:54:36.790Z,54.3
2016-12-09T23:57:08.635Z,54.3
2016-12-09T23:59:40.519Z,54.3
